Wetterdaten: Woche 11.10.04 - 17.10.04 (KW42)
Datum Zeit Temperatur Luftfeuchte Luftdruck Regenmenge Wind Richtung Taupunkt Windchill
11.10.2004 00:00 8.8 C 99 % 1014.4 hPa 0.0 l/m 3.3 km/h (1 Bft) O 8.6 C 8.4 C
11.10.2004 01:00 8.7 C 100 % 1014.7 hPa 0.0 l/m 4.3 km/h (1 Bft) NO 8.7 C 8.2 C
11.10.2004 02:00 8.4 C 100 % 1014.8 hPa 0.0 l/m 2.7 km/h (1 Bft) NO 8.4 C 8.2 C
11.10.2004 03:00 8.3 C 99 % 1014.8 hPa 0.0 l/m 2.4 km/h (1 Bft) N-NO 8.1 C 8.0 C
11.10.2004 04:00 8.3 C 98 % 1014.8 hPa 0.0 l/m 0.6 km/h (0 Bft) NO 8.0 C 8.3 C
11.10.2004 05:00 8.3 C 96 % 1015.7 hPa 0.0 l/m 1.0 km/h (0 Bft) NO 7.7 C 8.2 C
11.10.2004 06:00 8.3 C 95 % 1015.8 hPa 0.0 l/m 1.2 km/h (1 Bft) NO 7.6 C 8.2 C
11.10.2004 07:00 8.3 C 95 % 1015.8 hPa 0.0 l/m 1.0 km/h (0 Bft) NO 7.5 C 8.3 C
11.10.2004 08:00 8.3 C 92 % 1016.6 hPa 0.0 l/m 2.2 km/h (1 Bft) NO 7.1 C 8.0 C
11.10.2004 09:00 8.2 C 92 % 1016.9 hPa 0.0 l/m 5.1 km/h (1 Bft) O-SO 7.0 C 7.5 C
11.10.2004 10:00 8.5 C 89 % 1017.1 hPa 0.0 l/m 5.3 km/h (1 Bft) O-SO 6.9 C 7.8 C
11.10.2004 11:00 8.8 C 87 % 1017.8 hPa 0.0 l/m 3.3 km/h (1 Bft) O 6.8 C 8.4 C
11.10.2004 12:00 9.3 C 86 % 1017.8 hPa 0.0 l/m 3.4 km/h (1 Bft) O-SO 7.0 C 8.9 C
11.10.2004 13:00 9.7 C 84 % 1017.7 hPa 0.0 l/m 9.2 km/h (2 Bft) O-SO 7.1 C 8.5 C
11.10.2004 14:00 9.7 C 83 % 1017.7 hPa 0.0 l/m 11.2 km/h (2 Bft) O-SO 6.9 C 8.2 C
11.10.2004 15:00 10.1 C 82 % 1017.6 hPa 0.0 l/m 5.9 km/h (2 Bft) O-SO 7.1 C 9.7 C
11.10.2004 16:00 10.1 C 81 % 1017.6 hPa 0.0 l/m 2.3 km/h (1 Bft) O-SO 7.0 C 9.9 C
11.10.2004 17:00 9.5 C 83 % 1017.7 hPa 0.0 l/m 2.3 km/h (1 Bft) O-NO 6.8 C 9.3 C
11.10.2004 18:00 9.0 C 85 % 1018.8 hPa 0.0 l/m 2.4 km/h (1 Bft) O-NO 6.6 C 8.9 C
11.10.2004 19:00 8.7 C 85 % 1018.9 hPa 0.0 l/m 3.7 km/h (1 Bft) NO 6.3 C 8.3 C
11.10.2004 20:00 8.6 C 87 % 1019.9 hPa 0.0 l/m 0.9 km/h (0 Bft) N-NO 6.5 C 8.6 C
11.10.2004 21:00 8.5 C 86 % 1019.9 hPa 0.0 l/m 1.3 km/h (1 Bft) O-NO 6.4 C 8.5 C
11.10.2004 22:00 8.5 C 85 % 1019.9 hPa 0.0 l/m 0.4 km/h (0 Bft) N-NO 6.1 C 8.5 C
11.10.2004 23:00 8.5 C 85 % 1019.9 hPa 0.0 l/m 0.2 km/h (0 Bft) N 6.1 C 8.5 C
12.10.2004 00:00 8.5 C 85 % 1019.9 hPa 0.0 l/m 0.2 km/h (0 Bft) N 6.2 C 8.5 C
12.10.2004 01:00 8.7 C 84 % 1019.9 hPa 0.0 l/m 0.5 km/h (0 Bft) N-NO 6.1 C 8.7 C
12.10.2004 02:00 8.7 C 84 % 1019.9 hPa 0.0 l/m 1.4 km/h (1 Bft) O-SO 6.1 C 8.6 C
12.10.2004 03:00 8.7 C 83 % 1019.8 hPa 0.0 l/m 2.3 km/h (1 Bft) O-SO 6.1 C 8.5 C
12.10.2004 04:00 8.7 C 85 % 1019.8 hPa 0.0 l/m 0.3 km/h (0 Bft) N 6.3 C 8.7 C
12.10.2004 05:00 8.6 C 87 % 1019.7 hPa 0.0 l/m 1.9 km/h (1 Bft) O-SO 6.5 C 8.4 C
12.10.2004 06:00 8.5 C 88 % 1019.9 hPa 0.0 l/m 1.8 km/h (1 Bft) O-SO 6.6 C 8.3 C
12.10.2004 07:00 8.6 C 89 % 1019.9 hPa 0.0 l/m 0.5 km/h (0 Bft) O 6.9 C 8.5 C
12.10.2004 08:00 8.7 C 89 % 1019.9 hPa 0.0 l/m 0.1 km/h (0 Bft) O 7.0 C 8.7 C
12.10.2004 09:00 9.3 C 88 % 1019.8 hPa 0.0 l/m 0.6 km/h (0 Bft) O 7.4 C 9.3 C
12.10.2004 10:00 10.0 C 83 % 1019.7 hPa 0.0 l/m 0.8 km/h (0 Bft) O-SO 7.4 C 10.0 C
12.10.2004 11:00 11.0 C 79 % 1020.1 hPa 0.0 l/m 0.8 km/h (0 Bft) O 7.5 C 11.0 C
12.10.2004 12:00 12.0 C 76 % 1020.4 hPa 0.0 l/m 3.1 km/h (1 Bft) O 7.9 C 12.0 C
12.10.2004 13:00 13.0 C 71 % 1019.3 hPa 0.0 l/m 5.6 km/h (1 Bft) O-SO 8.0 C 13.0 C
12.10.2004 14:00 13.1 C 72 % 1019.3 hPa 0.0 l/m 3.6 km/h (1 Bft) O-SO 8.0 C 13.1 C
12.10.2004 15:00 13.1 C 73 % 1019.3 hPa 0.0 l/m 2.1 km/h (1 Bft) O-SO 8.3 C 13.1 C
12.10.2004 16:00 13.0 C 74 % 1019.3 hPa 0.0 l/m 0.4 km/h (0 Bft) O-NO 8.4 C 13.0 C
12.10.2004 17:00 12.0 C 78 % 1019.5 hPa 0.0 l/m 3.5 km/h (1 Bft) O 8.2 C 12.0 C
12.10.2004 18:00 11.4 C 79 % 1019.5 hPa 0.0 l/m 8.5 km/h (2 Bft) O-SO 7.9 C 11.4 C
12.10.2004 19:00 10.8 C 80 % 1020.3 hPa 0.0 l/m 4.2 km/h (1 Bft) O-SO 7.5 C 10.8 C
12.10.2004 20:00 10.4 C 81 % 1020.7 hPa 0.0 l/m 0.5 km/h (0 Bft) NO 7.3 C 10.4 C
12.10.2004 21:00 10.1 C 83 % 1020.8 hPa 0.0 l/m 0.1 km/h (0 Bft) N 7.3 C 10.1 C
12.10.2004 22:00 9.8 C 85 % 1020.8 hPa 0.0 l/m 0.6 km/h (0 Bft) O 7.3 C 9.8 C
12.10.2004 23:00 9.3 C 85 % 1020.9 hPa 0.0 l/m 3.7 km/h (1 Bft) O-SO 7.0 C 8.9 C
13.10.2004 00:00 9.1 C 86 % 1020.9 hPa 0.0 l/m 0.7 km/h (0 Bft) O-SO 6.9 C 9.0 C
13.10.2004 01:00 9.1 C 86 % 1020.7 hPa 0.0 l/m 0.0 km/h (0 Bft) N 6.9 C 9.1 C
13.10.2004 02:00 9.0 C 86 % 1019.9 hPa 0.0 l/m 0.0 km/h (0 Bft) N 6.7 C 9.0 C
13.10.2004 03:00 8.9 C 86 % 1019.9 hPa 0.0 l/m 0.0 km/h (0 Bft) N 6.7 C 8.9 C
13.10.2004 04:00 8.8 C 87 % 1019.9 hPa 0.0 l/m 0.1 km/h (0 Bft) N 6.7 C 8.8 C
13.10.2004 05:00 8.7 C 89 % 1019.9 hPa 0.0 l/m 0.0 km/h (0 Bft) N 7.0 C 8.7 C
13.10.2004 06:00 8.6 C 92 % 1019.9 hPa 0.0 l/m 0.0 km/h (0 Bft) N 7.4 C 8.6 C
13.10.2004 07:00 8.6 C 93 % 1019.9 hPa 0.0 l/m 0.0 km/h (0 Bft) N 7.5 C 8.6 C
13.10.2004 08:00 8.7 C 94 % 1019.9 hPa 0.0 l/m 0.0 km/h (0 Bft) N 7.7 C 8.7 C
13.10.2004 09:00 9.1 C 95 % 1019.9 hPa 0.0 l/m 0.1 km/h (0 Bft) NO 8.3 C 9.1 C
13.10.2004 10:00 9.4 C 95 % 1019.8 hPa 0.0 l/m 0.0 km/h (0 Bft) N 8.6 C 9.4 C
13.10.2004 11:00 10.4 C 89 % 1019.6 hPa 0.0 l/m 0.1 km/h (0 Bft) N 8.7 C 10.4 C
13.10.2004 12:00 10.9 C 86 % 1018.6 hPa 0.0 l/m 0.8 km/h (0 Bft) O-NO 8.6 C 10.9 C
13.10.2004 13:00 10.9 C 85 % 1018.3 hPa 0.0 l/m 0.9 km/h (0 Bft) O 8.5 C 10.9 C
13.10.2004 14:00 11.2 C 84 % 1017.5 hPa 0.0 l/m 0.6 km/h (0 Bft) O 8.6 C 11.2 C
13.10.2004 15:00 11.4 C 83 % 1017.0 hPa 0.0 l/m 0.0 km/h (0 Bft) N 8.6 C 11.4 C
13.10.2004 16:00 11.5 C 83 % 1016.4 hPa 0.0 l/m 0.0 km/h (0 Bft) N 8.7 C 11.5 C
13.10.2004 17:00 11.3 C 85 % 1016.3 hPa 0.0 l/m 0.0 km/h (0 Bft) N 8.8 C 11.3 C
13.10.2004 18:00 11.0 C 88 % 1015.5 hPa 0.0 l/m 0.0 km/h (0 Bft) N 9.1 C 11.0 C
13.10.2004 19:00 10.7 C 89 % 1015.7 hPa 0.0 l/m 0.3 km/h (0 Bft) O 8.9 C 10.7 C
13.10.2004 20:00 10.4 C 89 % 1016.6 hPa 0.0 l/m 2.8 km/h (1 Bft) O 8.6 C 10.4 C
13.10.2004 21:00 10.3 C 89 % 1015.9 hPa 0.0 l/m 0.1 km/h (0 Bft) N 8.6 C 10.3 C
13.10.2004 22:00 10.2 C 90 % 1015.6 hPa 0.0 l/m 0.0 km/h (0 Bft) N 8.7 C 10.2 C
13.10.2004 23:00 10.1 C 90 % 1015.2 hPa 0.0 l/m 0.0 km/h (0 Bft) N 8.6 C 10.1 C
14.10.2004 00:00 10.0 C 90 % 1014.5 hPa 0.0 l/m 0.2 km/h (0 Bft) O-NO 8.4 C 10.0 C
14.10.2004 01:00 10.0 C 91 % 1014.2 hPa 0.0 l/m 0.0 km/h (0 Bft) N 8.6 C 10.0 C
14.10.2004 02:00 10.0 C 91 % 1013.5 hPa 0.0 l/m 0.0 km/h (0 Bft) N 8.7 C 10.0 C
14.10.2004 03:00 9.7 C 94 % 1013.5 hPa 0.0 l/m 0.4 km/h (0 Bft) O-NO 8.8 C 9.7 C
14.10.2004 04:00 9.4 C 98 % 1012.7 hPa 0.3 l/m 0.4 km/h (0 Bft) O-NO 9.1 C 9.4 C
14.10.2004 05:00 9.5 C 99 % 1012.5 hPa 0.3 l/m 0.0 km/h (0 Bft) N 9.4 C 9.5 C
14.10.2004 06:00 9.5 C 100 % 1012.5 hPa 0.0 l/m 0.0 km/h (0 Bft) N 9.5 C 9.5 C
14.10.2004 07:00 9.3 C 100 % 1011.9 hPa 0.3 l/m 1.4 km/h (1 Bft) O-SO 9.3 C 9.2 C
14.10.2004 08:00 9.5 C 100 % 1012.4 hPa 0.3 l/m 0.2 km/h (0 Bft) O-SO 9.5 C 9.5 C
14.10.2004 09:00 9.9 C 100 % 1011.9 hPa 0.0 l/m 0.3 km/h (0 Bft) O-SO 9.9 C 9.9 C
14.10.2004 10:00 10.5 C 100 % 1011.4 hPa 0.0 l/m 0.3 km/h (0 Bft) O-SO 10.5 C 10.5 C
14.10.2004 11:00 11.2 C 100 % 1011.1 hPa 0.0 l/m 0.0 km/h (0 Bft) N 11.2 C 11.2 C
14.10.2004 12:00 12.8 C 87 % 1010.0 hPa 0.3 l/m 1.0 km/h (0 Bft) W-NW 10.6 C 12.8 C
14.10.2004 13:00 14.1 C 80 % 1008.7 hPa 0.0 l/m 0.6 km/h (0 Bft) NW 10.7 C 14.1 C
14.10.2004 14:00 14.9 C 76 % 1007.5 hPa 0.0 l/m 1.1 km/h (1 Bft) O 10.7 C 14.9 C
14.10.2004 15:00 14.7 C 76 % 1006.6 hPa 0.0 l/m 0.0 km/h (0 Bft) N 10.6 C 14.7 C
14.10.2004 16:00 14.3 C 81 % 1006.7 hPa 0.0 l/m 1.7 km/h (1 Bft) NW 11.0 C 14.3 C
14.10.2004 17:00 11.1 C 83 % 1007.5 hPa 0.6 l/m 27.6 km/h (4 Bft) NW 8.4 C 10.2 C
14.10.2004 18:00 9.4 C 97 % 1008.4 hPa 1.5 l/m 2.5 km/h (1 Bft) W-NW 8.9 C 9.2 C
14.10.2004 19:00 9.3 C 99 % 1008.4 hPa 0.9 l/m 0.0 km/h (0 Bft) N 9.1 C 9.3 C
14.10.2004 20:00 9.0 C 100 % 1008.4 hPa 1.9 l/m 0.2 km/h (0 Bft) O-SO 9.0 C 9.0 C
14.10.2004 21:00 9.0 C 100 % 1007.5 hPa 0.3 l/m 0.7 km/h (0 Bft) O-SO 9.0 C 8.9 C
14.10.2004 22:00 8.8 C 100 % 1007.4 hPa 0.0 l/m 5.1 km/h (1 Bft) O-SO 8.8 C 8.3 C
14.10.2004 23:00 8.5 C 100 % 1007.5 hPa 0.0 l/m 3.9 km/h (1 Bft) SO 8.5 C 8.0 C
15.10.2004 00:00 8.1 C 100 % 1007.0 hPa 0.0 l/m 1.3 km/h (1 Bft) O-SO 8.1 C 8.1 C
15.10.2004 01:00 7.2 C 100 % 1006.6 hPa 0.3 l/m 1.3 km/h (1 Bft) O-SO 7.2 C 7.1 C
15.10.2004 02:00 6.8 C 100 % 1006.5 hPa 0.0 l/m 0.0 km/h (0 Bft) N 6.8 C 6.8 C
15.10.2004 03:00 7.2 C 100 % 1005.6 hPa 0.0 l/m 0.0 km/h (0 Bft) N 7.2 C 7.2 C
15.10.2004 04:00 7.1 C 100 % 1005.6 hPa 0.0 l/m 0.0 km/h (0 Bft) N 7.1 C 7.1 C
15.10.2004 05:00 7.3 C 100 % 1004.6 hPa 0.0 l/m 0.0 km/h (0 Bft) N 7.3 C 7.3 C
15.10.2004 06:00 7.6 C 100 % 1004.5 hPa 0.6 l/m 0.0 km/h (0 Bft) N 7.6 C 7.6 C
15.10.2004 07:00 7.7 C 100 % 1004.5 hPa 0.0 l/m 0.7 km/h (0 Bft) O-SO 7.7 C 7.7 C
15.10.2004 08:00 8.2 C 100 % 1004.4 hPa 0.0 l/m 0.1 km/h (0 Bft) S 8.2 C 8.2 C
15.10.2004 09:00 8.9 C 100 % 1004.3 hPa 0.6 l/m 3.6 km/h (1 Bft) O-SO 8.9 C 8.6 C
15.10.2004 10:00 9.1 C 100 % 1004.3 hPa 0.0 l/m 1.3 km/h (1 Bft) NW 9.1 C 9.0 C
15.10.2004 11:00 8.9 C 100 % 1004.3 hPa 0.9 l/m 0.6 km/h (0 Bft) S-SO 8.9 C 8.9 C
15.10.2004 12:00 10.2 C 99 % 1003.0 hPa 0.3 l/m 1.9 km/h (1 Bft) O 10.0 C 10.0 C
15.10.2004 13:00 11.7 C 81 % 1001.5 hPa 0.0 l/m 2.9 km/h (1 Bft) W-NW 8.6 C 11.7 C
15.10.2004 14:00 11.4 C 83 % 1000.7 hPa 0.0 l/m 3.6 km/h (1 Bft) W-NW 8.6 C 11.4 C
15.10.2004 15:00 8.7 C 94 % 1002.1 hPa 3.1 l/m 17.8 km/h (3 Bft) O-SO 7.8 C 6.3 C
15.10.2004 16:00 7.9 C 98 % 1002.9 hPa 2.8 l/m 13.6 km/h (3 Bft) NW 7.6 C 5.9 C
15.10.2004 17:00 6.8 C 99 % 1004.0 hPa 4.6 l/m 9.2 km/h (2 Bft) NW 6.7 C 5.3 C
15.10.2004 18:00 6.3 C 100 % 1003.9 hPa 0.0 l/m 6.5 km/h (2 Bft) SO 6.3 C 5.1 C
15.10.2004 19:00 6.4 C 100 % 1004.6 hPa 0.3 l/m 3.5 km/h (1 Bft) SO 6.4 C 5.8 C
15.10.2004 20:00 6.3 C 100 % 1004.7 hPa 0.6 l/m 5.9 km/h (2 Bft) SO 6.3 C 5.2 C
15.10.2004 21:00 6.3 C 100 % 1005.4 hPa 0.0 l/m 3.9 km/h (1 Bft) SO 6.3 C 5.8 C
15.10.2004 22:00 5.9 C 100 % 1005.8 hPa 0.0 l/m 1.9 km/h (1 Bft) N 5.9 C 5.6 C
15.10.2004 23:00 5.9 C 100 % 1005.8 hPa 0.3 l/m 5.6 km/h (1 Bft) SO 5.9 C 4.8 C
16.10.2004 00:00 5.4 C 100 % 1005.8 hPa 0.0 l/m 1.1 km/h (0 Bft) SO 5.4 C 5.3 C
16.10.2004 01:00 5.0 C 100 % 1005.9 hPa 0.0 l/m 2.3 km/h (1 Bft) O-SO 5.0 C 4.6 C
16.10.2004 02:00 5.3 C 100 % 1005.8 hPa 0.0 l/m 0.7 km/h (0 Bft) O-SO 5.3 C 5.2 C
16.10.2004 03:00 5.3 C 100 % 1005.8 hPa 0.0 l/m 4.0 km/h (1 Bft) O-SO 5.3 C 4.5 C
16.10.2004 04:00 5.5 C 100 % 1005.8 hPa 0.0 l/m 0.0 km/h (0 Bft) N 5.5 C 5.5 C
16.10.2004 05:00 5.5 C 100 % 1005.8 hPa 0.0 l/m 2.7 km/h (1 Bft) O-SO 5.5 C 5.2 C
16.10.2004 06:00 5.5 C 100 % 1005.8 hPa 0.6 l/m 1.8 km/h (1 Bft) O-SO 5.5 C 5.2 C
16.10.2004 07:00 5.5 C 100 % 1005.8 hPa 0.9 l/m 4.1 km/h (1 Bft) SO 5.5 C 4.7 C
16.10.2004 08:00 5.5 C 100 % 1005.8 hPa 0.0 l/m 3.8 km/h (1 Bft) SO 5.5 C 4.9 C
16.10.2004 09:00 6.2 C 100 % 1005.7 hPa 0.0 l/m 0.1 km/h (0 Bft) N 6.2 C 6.2 C
16.10.2004 10:00 6.5 C 99 % 1005.7 hPa 0.3 l/m 1.2 km/h (1 Bft) SO 6.4 C 6.4 C
16.10.2004 11:00 7.4 C 97 % 1005.5 hPa 0.0 l/m 2.2 km/h (1 Bft) SO 6.9 C 7.2 C
16.10.2004 12:00 8.7 C 88 % 1004.5 hPa 0.0 l/m 5.8 km/h (2 Bft) O-SO 6.8 C 7.9 C
16.10.2004 13:00 9.7 C 76 % 1003.2 hPa 0.0 l/m 2.2 km/h (1 Bft) SO 5.6 C 9.6 C
16.10.2004 14:00 9.4 C 78 % 1002.8 hPa 1.2 l/m 14.4 km/h (3 Bft) NW 5.6 C 8.1 C
16.10.2004 15:00 8.9 C 83 % 1003.1 hPa 0.6 l/m 2.9 km/h (1 Bft) W-NW 6.1 C 8.5 C
16.10.2004 16:00 9.4 C 76 % 1003.2 hPa 0.0 l/m 8.5 km/h (2 Bft) W-NW 5.4 C 8.2 C
16.10.2004 17:00 8.6 C 77 % 1003.2 hPa 0.0 l/m 4.9 km/h (1 Bft) NW 4.8 C 7.9 C
16.10.2004 18:00 6.2 C 88 % 1003.6 hPa 0.0 l/m 1.4 km/h (1 Bft) O 4.3 C 6.0 C
16.10.2004 19:00 5.7 C 95 % 1004.4 hPa 0.0 l/m 4.4 km/h (1 Bft) NW 5.0 C 5.0 C
16.10.2004 20:00 5.2 C 95 % 1004.8 hPa 0.0 l/m 1.7 km/h (1 Bft) W-NW 4.5 C 4.8 C
16.10.2004 21:00 4.2 C 97 % 1005.0 hPa 0.0 l/m 1.3 km/h (1 Bft) NO 3.7 C 4.0 C
16.10.2004 22:00 3.8 C 100 % 1005.5 hPa 0.0 l/m 0.2 km/h (0 Bft) O 3.8 C 3.8 C
16.10.2004 23:00 3.8 C 100 % 1006.1 hPa 0.0 l/m 0.0 km/h (0 Bft) N 3.8 C 3.8 C
17.10.2004 00:00 4.3 C 100 % 1006.0 hPa 0.0 l/m 0.0 km/h (0 Bft) N 4.3 C 4.3 C
17.10.2004 01:00 4.3 C 100 % 1006.0 hPa 0.0 l/m 0.0 km/h (0 Bft) N 4.3 C 4.3 C
17.10.2004 02:00 4.7 C 100 % 1006.2 hPa 0.0 l/m 0.0 km/h (0 Bft) N 4.7 C 4.7 C
17.10.2004 03:00 4.0 C 100 % 1006.6 hPa 0.0 l/m 0.0 km/h (0 Bft) N 4.0 C 4.0 C
17.10.2004 04:00 4.7 C 100 % 1007.0 hPa 0.3 l/m 1.4 km/h (1 Bft) S 4.7 C 4.5 C
17.10.2004 05:00 5.0 C 100 % 1006.9 hPa 0.0 l/m 1.4 km/h (1 Bft) S 5.0 C 5.0 C
17.10.2004 06:00 5.3 C 100 % 1006.9 hPa 0.6 l/m 0.6 km/h (0 Bft) O-SO 5.3 C 5.2 C
17.10.2004 07:00 5.0 C 100 % 1006.9 hPa 0.0 l/m 3.0 km/h (1 Bft) SO 5.0 C 4.5 C
17.10.2004 08:00 5.5 C 100 % 1007.7 hPa 0.6 l/m 1.2 km/h (1 Bft) W 5.5 C 5.4 C
17.10.2004 09:00 6.6 C 100 % 1007.7 hPa 0.0 l/m 0.1 km/h (0 Bft) N 6.6 C 6.6 C
17.10.2004 10:00 7.8 C 95 % 1007.6 hPa 0.0 l/m 0.4 km/h (0 Bft) W-NW 6.9 C 7.8 C
17.10.2004 11:00 8.4 C 90 % 1007.5 hPa 0.0 l/m 0.4 km/h (0 Bft) W-NW 6.9 C 8.4 C
17.10.2004 12:00 9.8 C 80 % 1007.3 hPa 0.0 l/m 5.1 km/h (1 Bft) W-NW 6.4 C 9.5 C
17.10.2004 13:00 7.9 C 84 % 1008.6 hPa 1.2 l/m 18.5 km/h (3 Bft) W-NW 5.3 C 5.3 C
17.10.2004 14:00 7.2 C 92 % 1009.7 hPa 0.0 l/m 5.6 km/h (1 Bft) SW 6.0 C 6.3 C
17.10.2004 15:00 8.6 C 83 % 1009.5 hPa 0.0 l/m 8.0 km/h (2 Bft) SW 5.8 C 7.5 C
17.10.2004 16:00 8.7 C 80 % 1009.5 hPa 0.0 l/m 9.9 km/h (2 Bft) S 5.3 C 7.2 C
17.10.2004 17:00 7.9 C 86 % 1010.1 hPa 1.2 l/m 14.7 km/h (3 Bft) W 5.7 C 5.6 C
17.10.2004 18:00 6.9 C 95 % 1010.8 hPa 0.0 l/m 5.3 km/h (1 Bft) W 6.2 C 6.1 C
17.10.2004 19:00 6.9 C 99 % 1011.3 hPa 0.0 l/m 1.9 km/h (1 Bft) SO 6.7 C 6.7 C
17.10.2004 20:00 7.1 C 99 % 1011.8 hPa 0.3 l/m 3.2 km/h (1 Bft) SO 6.9 C 6.7 C
17.10.2004 21:00 7.4 C 97 % 1011.8 hPa 0.0 l/m 7.4 km/h (2 Bft) SW 6.9 C 6.3 C
17.10.2004 22:00 7.8 C 89 % 1011.7 hPa 0.0 l/m 11.1 km/h (2 Bft) W-NW 6.1 C 6.1 C
17.10.2004 23:00 8.3 C 83 % 1011.1 hPa 0.0 l/m 3.1 km/h (1 Bft) W 5.6 C 8.0 C
Min-Datum _ 16.10.04 16.10.04 15.10.04 - 11.10.04 - 16.10.04 17.10.04
_ Min-Zeit 23:11 14:32 14:38 - 00:14 - 14:32 07:23
Minimum _ 3.0 C 57 % 999.8 hPa - 0.0 km/h (0 Bft) - 0.0 C 2.3 C
Max-Datum _ 14.10.04 11.10.04 13.10.04 15.10.04 16.10.04 - 14.10.04 14.10.04
_ Max-Zeit 14:32 00:02 00:32 16:00 14:26 - 11:53 14:32
Maximum _ 15.3 C 100 % 1020.9 hPa 4.6 l/m 53.2 km/h
NW (7 Bft)
- 12.1 C 15.3 C
Durchschnitt _ 8.6 C 91 % 1012.0 hPa #29.5 l/m 2.6 km/h (1 Bft) O-SO 7.2 C 8.4 C

Durchschnitt Minimum Temp.8.2 C
Durchschnitt Maximum Temp.9.0 C
© Kaiko 2004